Troutville, PA (15866)

5:31 AM EDT on August 26, 2016 (GMT -0400)
Eastern Avenue | | Change Station

Elev 1457 ft 41.12 °N, 78.74 °W | Updated 8 seconds ago

Overcast
Overcast
73.8 °F
Feels Like 73.8 °F
N
0.0
Wind Variable Wind from North
Gusts 0.0 mph

Today
High -- | Low -- °F
--% Chance of Precip.
Yesterday
High -- | Low -- °F
Precip. -- in
Pressure 30.05 in
Visibility 4.0 miles
Clouds Overcast 200 ft
Dew Point 74 °F
Humidity 99%
Rainfall 0.00 in
Snow Depth Not available.
6:36 AM 7:56 PM
Last Quarter, 36% visible
METAR KDUJ 260853Z AUTO 27008KT 4SM BR OVC002 22/20 A3010 RMK AO2 SLP175 T02170200 53010
Pressure 30.05 in
Visibility 4.0 miles
Clouds Overcast 200 ft
Dew Point 74 °F
Humidity 99%
Rainfall 0.00 in
Snow Depth Not available.
6:36 AM 7:56 PM
Last Quarter, 36% visible
METAR KDUJ 260853Z AUTO 27008KT 4SM BR OVC002 22/20 A3010 RMK AO2 SLP175 T02170200 53010

10-Day Weather Forecast

Almanac

Astronomy

Aug. 26, 2016 Rise Set
Actual Time
Civil Twilight
Nautical Twilight
Astronomical Twilight
Moon
Length of Visible Light
Length of Day
Tomorrow will be .
, % of the Moon is Illuminated

Today's Extremes

State Highs State Lows

Community

WunderPhotos

Upload Photos

1,935,069 photos uploaded!

WunderBlog® & News

Nearby

Air Quality

  Air Quality AQ Index Pollutant
Not available.

Snow Depth

Station Depth Elevation

Earthquake Activity

City Distance Mag. Time & Date
Minimum magnitude displayed is 2.5.

Coastal Water Temperatures

Place Temperature

Stations

Nearby Weather Stations

Station Location Temp. Windchill Dew Point Humidity Wind Precip. Elev Updated Type
                   

Watches & Warnings

There are currently no watches in effect.